Time;durP1;ratioP1;P1;durP2;ratioP2;P2;SDS_P1;SDS_P2;PMS_P1;PMS_P2;Temp;Humidity;BMP_temperature;BMP_pressure;BME280_temperature;BME280_humidity;BME280_pressure;Samples;Min_cycle;Max_cycle;Signal;HPM_P1;HPM_P2
2022/05/30 00:00:12;;;;;;;8.30;1.95;;;11.70;64.60;;;;;;9184409;19;20014;-74
2022/05/30 00:03:17;;;;;;;10.85;1.67;;;11.60;64.60;;;;;;9186024;19;20411;-71
2022/05/30 00:06:25;;;;;;;13.65;2.25;;;11.60;64.70;;;;;;9183248;19;20045;-74
2022/05/30 00:09:30;;;;;;;10.05;2.85;;;11.60;64.80;;;;;;9184946;19;20842;-73
2022/05/30 00:12:38;;;;;;;14.18;2.30;;;11.60;64.80;;;;;;9184515;19;20034;-74
2022/05/30 00:15:44;;;;;;;14.55;2.58;;;11.60;64.90;;;;;;9184255;19;20023;-74
2022/05/30 00:18:52;;;;;;;11.57;2.35;;;11.60;65.00;;;;;;9186188;19;20025;-74
2022/05/30 00:21:59;;;;;;;12.45;2.25;;;11.50;64.90;;;;;;9179923;19;20037;-72
2022/05/30 00:25:06;;;;;;;13.05;2.65;;;11.50;65.00;;;;;;9185134;19;20479;-73
2022/05/30 00:28:17;;;;;;;8.93;2.10;;;11.50;65.00;;;;;;9182749;19;20014;-72
2022/05/30 00:31:26;;;;;;;8.60;1.75;;;11.50;65.10;;;;;;9185376;19;20011;-70
2022/05/30 00:34:31;;;;;;;8.80;2.00;;;11.50;65.10;;;;;;9182581;19;20011;-72
2022/05/30 00:37:36;;;;;;;6.43;2.08;;;11.50;65.10;;;;;;9182388;19;20026;-72
2022/05/30 00:40:41;;;;;;;9.40;1.73;;;11.50;65.20;;;;;;9185332;19;20463;-75
2022/05/30 00:43:50;;;;;;;12.90;2.00;;;11.50;65.20;;;;;;9183844;19;20484;-70
2022/05/30 00:46:55;;;;;;;12.95;1.90;;;11.50;65.30;;;;;;9183242;19;20014;-75
2022/05/30 00:50:01;;;;;;;5.97;1.50;;;11.40;65.20;;;;;;9182749;19;20026;-69
2022/05/30 00:53:07;;;;;;;12.45;2.13;;;11.40;65.20;;;;;;9184943;19;20023;-72
2022/05/30 00:56:13;;;;;;;14.50;2.35;;;11.50;65.50;;;;;;9180456;19;20077;-72
2022/05/30 00:59:22;;;;;;;13.82;2.42;;;11.40;65.40;;;;;;9182523;19;20022;-73
2022/05/30 01:02:33;;;;;;;6.57;1.77;;;11.40;65.50;;;;;;9183549;19;20479;-73
2022/05/30 01:09:02;;;;;;;11.70;2.28;;;11.40;65.50;;;;;;9177903;19;20085;-73
2022/05/30 01:12:10;;;;;;;11.93;1.90;;;11.40;65.50;;;;;;9182369;19;20022;-74
2022/05/30 01:15:20;;;;;;;8.13;2.00;;;11.40;65.60;;;;;;9182064;19;20031;-74
2022/05/30 01:18:28;;;;;;;10.70;1.88;;;11.40;65.70;;;;;;9181106;19;20021;-71
2022/05/30 01:21:54;;;;;;;5.78;1.70;;;11.40;65.70;;;;;;9179547;19;20021;-72
2022/05/30 01:25:07;;;;;;;11.70;2.50;;;11.40;65.80;;;;;;9182397;19;20097;-73
2022/05/30 01:28:42;;;;;;;9.20;1.80;;;11.40;65.70;;;;;;9180700;19;20373;-74
2022/05/30 01:31:50;;;;;;;10.50;2.45;;;11.40;65.80;;;;;;9181117;19;20475;-74
2022/05/30 01:34:55;;;;;;;12.27;2.30;;;11.30;65.70;;;;;;9181844;19;20338;-73
2022/05/30 01:38:10;;;;;;;9.00;2.47;;;11.30;65.70;;;;;;9180888;19;20026;-71
2022/05/30 01:41:15;;;;;;;14.95;2.90;;;11.30;65.80;;;;;;9180669;19;20476;-71
2022/05/30 01:44:23;;;;;;;13.45;2.25;;;11.30;65.90;;;;;;9180469;19;20011;-73
2022/05/30 01:47:29;;;;;;;12.98;2.13;;;11.30;65.90;;;;;;9179235;19;20025;-73
2022/05/30 01:50:35;;;;;;;8.38;2.00;;;11.30;65.90;;;;;;9181111;19;20030;-74
2022/05/30 01:53:52;;;;;;;9.68;2.28;;;11.30;66.00;;;;;;9180253;19;20461;-74
2022/05/30 01:56:58;;;;;;;9.00;2.75;;;11.30;66.00;;;;;;9179966;19;20033;-74
2022/05/30 02:00:14;;;;;;;10.05;1.95;;;11.30;66.00;;;;;;9180269;19;20010;-74
2022/05/30 02:03:24;;;;;;;9.98;2.20;;;11.30;66.20;;;;;;9177739;19;20035;-73
2022/05/30 02:06:31;;;;;;;10.13;1.80;;;11.30;66.10;;;;;;9179770;19;20431;-72
2022/05/30 02:09:37;;;;;;;16.52;2.55;;;11.20;66.10;;;;;;9177043;19;20014;-72
2022/05/30 02:12:43;;;;;;;9.98;2.30;;;11.20;66.10;;;;;;9178874;19;20044;-71
2022/05/30 02:19:23;;;;;;;13.23;2.08;;;11.20;66.30;;;;;;9180107;19;20039;-72
2022/05/30 02:22:29;;;;;;;8.40;1.80;;;11.10;66.20;;;;;;9176721;19;20027;-74
2022/05/30 02:25:35;;;;;;;13.70;2.22;;;11.20;66.40;;;;;;9179751;19;20398;-73
2022/05/30 02:28:40;;;;;;;8.10;1.85;;;11.10;66.30;;;;;;9178450;19;20014;-73
2022/05/30 02:31:48;;;;;;;10.38;2.67;;;11.10;66.40;;;;;;9178525;19;20014;-72
2022/05/30 02:38:12;;;;;;;9.70;2.13;;;11.10;66.50;;;;;;9178927;19;20021;-74
2022/05/30 02:41:39;;;;;;;10.27;2.72;;;11.00;66.40;;;;;;9176928;19;20343;-72
2022/05/30 02:44:49;;;;;;;7.25;2.20;;;11.00;66.50;;;;;;9181155;19;20025;-71
2022/05/30 02:47:57;;;;;;;9.07;2.05;;;11.00;66.50;;;;;;9179436;19;20373;-74
2022/05/30 02:51:02;;;;;;;8.13;2.53;;;11.00;66.60;;;;;;9177682;19;20010;-72
2022/05/30 02:54:08;;;;;;;6.85;2.15;;;11.00;66.60;;;;;;9178102;19;20011;-72
2022/05/30 02:57:43;;;;;;;11.85;2.50;;;10.90;66.90;;;;;;9178509;19;20007;-73
2022/05/30 03:00:48;;;;;;;6.22;2.25;;;10.90;66.70;;;;;;9186295;19;20019;-73
2022/05/30 03:03:56;;;;;;;5.88;1.55;;;10.90;66.80;;;;;;9187214;19;20021;-73
2022/05/30 03:07:02;;;;;;;9.45;2.10;;;10.90;66.90;;;;;;9188068;19;20034;-74
2022/05/30 03:10:08;;;;;;;8.63;2.30;;;10.80;66.80;;;;;;9183462;19;20391;-72
2022/05/30 03:13:25;;;;;;;7.97;2.03;;;10.80;66.90;;;;;;9187244;19;20017;-71
2022/05/30 03:16:30;;;;;;;12.55;2.22;;;10.80;66.90;;;;;;9186947;19;20022;-73
2022/05/30 03:19:38;;;;;;;10.68;2.92;;;10.80;67.00;;;;;;9188287;19;20013;-73
2022/05/30 03:22:44;;;;;;;8.35;2.35;;;10.80;67.10;;;;;;9181463;19;20022;-72
2022/05/30 03:26:16;;;;;;;10.52;2.20;;;10.80;67.00;;;;;;9185108;19;20015;-74
2022/05/30 03:29:23;;;;;;;7.28;2.78;;;10.80;67.10;;;;;;9184689;19;20026;-70
2022/05/30 03:32:29;;;;;;;9.27;2.30;;;10.70;67.10;;;;;;9185520;19;20015;-74
2022/05/30 03:35:37;;;;;;;11.95;2.15;;;10.80;67.20;;;;;;9185698;19;20010;-74
2022/05/30 03:39:01;;;;;;;10.65;2.53;;;10.70;67.20;;;;;;9185739;19;20021;-73
2022/05/30 03:42:41;;;;;;;11.00;2.30;;;10.70;67.10;;;;;;9185703;19;20010;-72
2022/05/30 03:45:53;;;;;;;15.75;2.10;;;10.70;67.10;;;;;;9184774;19;20022;-72
2022/05/30 03:48:59;;;;;;;8.50;2.40;;;10.60;67.10;;;;;;9185997;19;20025;-72
2022/05/30 03:52:08;;;;;;;6.35;1.95;;;10.60;67.10;;;;;;9186744;19;20014;-72
2022/05/30 03:55:16;;;;;;;7.05;2.25;;;10.60;67.20;;;;;;9185264;19;20026;-72
2022/05/30 03:58:23;;;;;;;10.23;2.30;;;10.60;67.20;;;;;;9184663;19;20021;-74
2022/05/30 04:01:28;;;;;;;11.65;2.28;;;10.60;67.30;;;;;;9184869;19;20273;-72
2022/05/30 04:04:36;;;;;;;10.55;2.33;;;10.50;67.30;;;;;;9184104;19;20015;-73
2022/05/30 04:07:43;;;;;;;5.07;1.77;;;10.50;67.30;;;;;;9182832;19;20048;-72
2022/05/30 04:11:07;;;;;;;9.68;2.63;;;10.40;67.40;;;;;;9182306;19;20019;-71
2022/05/30 04:14:31;;;;;;;8.77;2.08;;;10.40;67.30;;;;;;9184441;19;20018;-71
2022/05/30 04:17:59;;;;;;;14.40;2.38;;;10.50;67.40;;;;;;9183880;19;20022;-75
2022/05/30 04:21:04;;;;;;;10.57;2.40;;;10.40;67.40;;;;;;9181472;19;20023;-74
2022/05/30 04:24:15;;;;;;;6.72;2.03;;;10.40;67.50;;;;;;9183459;19;20506;-75
2022/05/30 04:27:29;;;;;;;5.75;2.03;;;10.40;67.60;;;;;;9183745;19;20022;-73
2022/05/30 04:30:34;;;;;;;16.15;3.15;;;10.40;67.70;;;;;;9183642;19;20035;-72
2022/05/30 04:33:44;;;;;;;4.88;2.22;;;10.30;67.70;;;;;;9183072;19;20095;-72
2022/05/30 04:36:49;;;;;;;14.63;2.90;;;10.30;67.80;;;;;;9183298;19;20375;-73
2022/05/30 04:39:57;;;;;;;10.80;2.78;;;10.30;67.80;;;;;;9183253;19;20030;-75
2022/05/30 04:43:35;;;;;;;16.55;2.85;;;10.30;68.00;;;;;;9183466;19;20010;-74
2022/05/30 04:47:12;;;;;;;20.25;3.17;;;10.30;67.90;;;;;;9183521;19;20007;-74
2022/05/30 04:50:22;;;;;;;12.15;2.60;;;10.40;68.00;;;;;;9180243;19;20022;-74
2022/05/30 04:53:30;;;;;;;17.45;4.20;;;10.40;68.20;;;;;;9182262;19;20025;-74
2022/05/30 04:57:00;;;;;;;10.52;3.17;;;10.40;68.20;;;;;;9184135;19;20014;-74
2022/05/30 05:00:13;;;;;;;13.65;3.00;;;10.40;68.30;;;;;;9182410;19;20025;-72
2022/05/30 05:03:22;;;;;;;10.18;2.97;;;10.40;68.30;;;;;;9182164;19;20025;-74
2022/05/30 05:06:28;;;;;;;13.23;4.50;;;10.40;68.30;;;;;;9182104;19;20049;-74
2022/05/30 05:09:42;;;;;;;9.68;2.83;;;10.50;68.40;;;;;;9180405;19;20082;-73
2022/05/30 05:12:49;;;;;;;11.45;2.90;;;10.50;68.50;;;;;;9183540;19;20337;-73
2022/05/30 05:15:58;;;;;;;11.77;3.13;;;10.50;68.50;;;;;;9184226;19;20038;-74
2022/05/30 05:19:09;;;;;;;9.15;2.80;;;10.60;68.60;;;;;;9182414;19;20090;-74
2022/05/30 05:22:17;;;;;;;8.50;2.78;;;10.60;68.60;;;;;;9179210;19;20116;-71
2022/05/30 05:25:27;;;;;;;12.00;2.33;;;10.60;68.60;;;;;;9181868;19;20396;-74
2022/05/30 05:28:58;;;;;;;9.48;2.10;;;10.60;68.60;;;;;;9182129;19;20010;-74
2022/05/30 05:32:04;;;;;;;9.50;2.75;;;10.70;68.70;;;;;;9181516;19;20112;-73
2022/05/30 05:35:10;;;;;;;12.50;2.30;;;10.70;68.60;;;;;;9181053;19;20044;-71
2022/05/30 05:38:16;;;;;;;13.55;3.63;;;10.80;68.70;;;;;;9179653;19;20014;-73
2022/05/30 05:41:33;;;;;;;14.15;2.53;;;10.80;68.70;;;;;;9181943;19;20107;-74
2022/05/30 05:44:49;;;;;;;;;;;10.90;68.70;;;;;;9180949;19;20027;-74
2022/05/30 05:47:55;;;;;;;5.25;1.63;;;11.00;68.70;;;;;;9180552;19;20363;-72
2022/05/30 05:51:00;;;;;;;7.03;2.00;;;11.00;68.50;;;;;;9178511;19;20014;-73
2022/05/30 05:54:05;;;;;;;8.52;2.47;;;11.10;68.70;;;;;;9180110;19;20018;-72
2022/05/30 05:57:13;;;;;;;7.82;2.28;;;11.20;68.80;;;;;;9179847;19;20113;-73
2022/05/30 06:00:34;;;;;;;9.45;2.15;;;11.30;68.80;;;;;;9173259;19;20668;-72
2022/05/30 06:03:39;;;;;;;6.97;2.05;;;11.40;68.80;;;;;;9175578;19;20559;-71
2022/05/30 06:07:07;;;;;;;7.93;1.60;;;11.50;68.80;;;;;;9172542;19;20337;-71
2022/05/30 06:11:05;;;;;;;9.98;2.47;;;11.60;68.70;;;;;;9170412;19;20026;-73
2022/05/30 06:14:01;;;;;;;24.92;3.03;;;11.80;68.70;;;;;;9175443;19;20469;-70
2022/05/30 06:17:13;;;;;;;11.18;2.38;;;11.90;68.70;;;;;;9175339;19;20019;-71
2022/05/30 06:20:20;;;;;;;11.68;2.00;;;12.00;68.70;;;;;;9175038;19;20018;-70
2022/05/30 06:23:26;;;;;;;11.43;2.03;;;12.20;68.70;;;;;;9170934;19;20123;-72
2022/05/30 06:26:44;;;;;;;7.28;1.65;;;12.40;68.70;;;;;;9171866;19;20031;-71
2022/05/30 06:29:59;;;;;;;5.50;1.42;;;12.60;68.60;;;;;;9169853;19;20025;-70
2022/05/30 06:33:07;;;;;;;11.13;2.10;;;12.70;68.60;;;;;;9175792;19;20364;-71
2022/05/30 06:36:26;;;;;;;4.05;1.35;;;12.90;68.50;;;;;;9187373;19;20027;-73
2022/05/30 06:39:31;;;;;;;5.60;1.88;;;13.20;68.40;;;;;;9189831;19;20018;-73
2022/05/30 06:42:48;;;;;;;9.68;1.73;;;13.40;68.30;;;;;;9187704;19;20019;-73
2022/05/30 06:46:02;;;;;;;7.30;1.45;;;13.70;68.00;;;;;;9185716;19;20018;-70
2022/05/30 06:49:37;;;;;;;5.47;1.80;;;13.90;67.90;;;;;;9184505;19;20043;-71
2022/05/30 06:52:43;;;;;;;7.90;1.30;;;14.20;67.60;;;;;;9188078;19;20502;-73
2022/05/30 06:55:50;;;;;;;5.03;1.45;;;14.40;67.40;;;;;;9187448;19;20029;-72
2022/05/30 06:58:57;;;;;;;5.10;1.02;;;14.60;67.20;;;;;;9187117;19;20011;-74
2022/05/30 07:02:04;;;;;;;3.58;1.08;;;14.80;67.00;;;;;;9187833;19;20485;-70
2022/05/30 07:05:31;;;;;;;7.28;0.93;;;15.00;66.70;;;;;;9185818;19;20034;-72
2022/05/30 07:08:54;;;;;;;8.38;1.13;;;15.20;66.40;;;;;;9186383;19;20027;-71
2022/05/30 07:12:16;;;;;;;4.13;0.70;;;15.40;66.20;;;;;;9186878;19;20011;-70
2022/05/30 07:15:22;;;;;;;6.95;1.23;;;15.60;66.00;;;;;;9186252;19;20022;-72
2022/05/30 07:18:30;;;;;;;6.68;1.67;;;15.90;65.70;;;;;;9189144;19;20022;-72
2022/05/30 07:21:38;;;;;;;6.65;0.82;;;16.10;65.40;;;;;;9182299;19;20018;-73
2022/05/30 07:25:05;;;;;;;6.75;1.02;;;16.20;64.90;;;;;;9187036;19;20022;-72
2022/05/30 07:28:36;;;;;;;3.60;1.30;;;16.40;64.70;;;;;;9188795;19;20022;-74
2022/05/30 07:32:13;;;;;;;3.45;0.85;;;16.60;64.50;;;;;;9181712;19;20010;-73
2022/05/30 07:35:38;;;;;;;3.70;1.13;;;16.70;64.20;;;;;;9189790;19;20009;-72
2022/05/30 07:39:06;;;;;;;6.03;0.93;;;16.90;64.10;;;;;;9188683;19;20019;-74
2022/05/30 07:42:32;;;;;;;2.33;0.80;;;17.10;63.60;;;;;;9186501;19;20030;-74
2022/05/30 07:46:01;;;;;;;7.90;0.80;;;17.20;63.30;;;;;;9184753;19;20494;-74
2022/05/30 07:49:28;;;;;;;3.38;1.27;;;17.30;63.00;;;;;;9187102;19;20017;-72
2022/05/30 07:52:36;;;;;;;5.07;0.85;;;17.50;62.80;;;;;;9186324;19;20025;-72
2022/05/30 07:55:54;;;;;;;3.00;1.10;;;17.60;62.50;;;;;;9186596;19;20030;-73
2022/05/30 07:58:59;;;;;;;6.60;1.13;;;17.70;62.10;;;;;;9187153;19;20529;-71
2022/05/30 08:02:09;;;;;;;3.15;0.80;;;17.80;62.00;;;;;;9182997;19;20861;-74
2022/05/30 08:05:18;;;;;;;2.88;0.73;;;17.90;61.70;;;;;;9181356;19;20018;-72
2022/05/30 08:08:47;;;;;;;3.72;0.80;;;17.90;61.50;;;;;;9180484;19;20022;-74
2022/05/30 08:11:55;;;;;;;2.38;0.70;;;18.00;61.40;;;;;;9176840;19;20070;-69
2022/05/30 08:15:22;;;;;;;2.58;0.63;;;18.10;61.00;;;;;;9182418;19;20021;-74
2022/05/30 08:18:49;;;;;;;3.58;0.77;;;18.10;61.00;;;;;;9184138;19;20010;-73
2022/05/30 08:21:54;;;;;;;3.45;0.85;;;18.20;61.50;;;;;;9178248;19;20025;-74
2022/05/30 08:24:59;;;;;;;3.05;0.68;;;18.40;60.60;;;;;;9179689;19;20115;-75
2022/05/30 08:28:08;;;;;;;3.08;0.70;;;18.50;60.40;;;;;;9179062;19;20098;-74
2022/05/30 08:31:14;;;;;;;1.20;0.45;;;18.60;60.00;;;;;;9177926;19;20031;-74
2022/05/30 08:34:23;;;;;;;1.55;0.50;;;18.60;59.70;;;;;;9181651;19;20029;-74
2022/05/30 08:37:39;;;;;;;2.88;0.63;;;18.70;59.50;;;;;;9180801;19;20022;-74
2022/05/30 08:44:10;;;;;;;2.13;0.77;;;18.70;59.00;;;;;;9177421;19;20013;-72
2022/05/30 08:47:50;;;;;;;5.22;0.90;;;18.70;58.70;;;;;;9182850;19;20106;-71
2022/05/30 08:51:06;;;;;;;2.30;0.60;;;18.70;58.40;;;;;;9176512;19;20419;-74
2022/05/30 08:54:28;;;;;;;4.10;0.85;;;18.60;58.40;;;;;;9179888;19;20019;-75
2022/05/30 08:58:02;;;;;;;3.58;0.85;;;18.60;58.30;;;;;;9176365;19;20019;-72
2022/05/30 09:01:13;;;;;;;3.88;1.13;;;18.50;58.40;;;;;;9179102;19;20118;-75
2022/05/30 09:04:42;;;;;;;3.35;0.82;;;18.40;58.30;;;;;;9179065;19;20014;-76
2022/05/30 09:07:54;;;;;;;0.80;0.40;;;18.40;58.40;;;;;;9176819;19;20356;-73
2022/05/30 09:11:04;;;;;;;4.05;0.57;;;18.30;58.10;;;;;;9178468;19;20044;-73
2022/05/30 09:14:16;;;;;;;5.20;0.75;;;18.20;58.10;;;;;;9178871;19;20397;-75
2022/05/30 09:17:30;;;;;;;3.50;0.60;;;18.10;58.00;;;;;;9180042;19;20034;-72
2022/05/30 09:20:41;;;;;;;4.28;0.55;;;18.10;58.00;;;;;;9173511;19;20337;-73
2022/05/30 09:23:49;;;;;;;2.90;0.80;;;18.00;58.10;;;;;;9175275;19;20362;-73
2022/05/30 09:26:57;;;;;;;2.67;0.47;;;18.00;58.10;;;;;;9178376;19;20019;-75
2022/05/30 09:30:08;;;;;;;6.57;1.10;;;18.00;58.10;;;;;;9176255;19;20077;-74
2022/05/30 09:33:44;;;;;;;1.45;0.47;;;18.00;58.00;;;;;;9177017;19;20020;-71
2022/05/30 09:37:31;;;;;;;3.28;0.68;;;17.90;57.90;;;;;;9177442;19;20010;-74
2022/05/30 09:40:49;;;;;;;2.05;0.68;;;17.90;57.80;;;;;;9178060;19;20031;-73
2022/05/30 09:44:06;;;;;;;5.03;1.10;;;17.90;57.90;;;;;;9176588;19;20015;-70
2022/05/30 09:47:22;;;;;;;6.43;1.00;;;18.00;57.90;;;;;;9178088;19;20460;-74
2022/05/30 09:50:50;;;;;;;;;;;18.00;57.70;;;;;;9177340;19;20035;-77
2022/05/30 09:53:56;;;;;;;3.38;0.82;;;18.00;58.10;;;;;;9177057;19;19922;-75
2022/05/30 09:57:08;;;;;;;4.45;0.80;;;18.00;58.00;;;;;;9175726;19;20014;-72
2022/05/30 10:00:43;;;;;;;5.63;0.68;;;18.00;57.80;;;;;;9175945;19;20057;-72
2022/05/30 10:03:52;;;;;;;5.03;0.98;;;18.00;57.90;;;;;;9177328;19;20021;-75
2022/05/30 10:07:26;;;;;;;2.88;0.50;;;18.10;58.00;;;;;;9179019;19;20457;-76
2022/05/30 10:10:48;;;;;;;3.20;0.73;;;18.10;57.60;;;;;;9176884;19;20026;-74
2022/05/30 10:13:55;;;;;;;;;;;18.20;57.80;;;;;;9181145;19;20114;-76
2022/05/30 10:17:41;;;;;;;5.88;0.73;;;18.20;58.10;;;;;;9179657;19;19933;-72
2022/05/30 10:21:00;;;;;;;2.13;0.75;;;18.30;57.80;;;;;;9175579;19;20053;-72
2022/05/30 10:28:44;;;;;;;;;;;18.50;57.40;;;;;;9173477;19;20053;-73
2022/05/30 10:32:26;;;;;;;6.55;1.00;;;18.50;57.80;;;;;;9175455;19;20281;-73
2022/05/30 10:35:41;;;;;;;3.08;0.70;;;18.60;57.30;;;;;;9173948;19;20471;-78
2022/05/30 10:39:02;;;;;;;2.03;1.05;;;18.60;57.20;;;;;;9172600;19;20018;-74
2022/05/30 10:42:16;;;;;;;2.30;0.80;;;18.60;56.90;;;;;;9171412;19;20074;-70
2022/05/30 10:45:35;;;;;;;3.33;0.60;;;18.70;56.80;;;;;;9171503;19;20011;-75
2022/05/30 10:48:43;;;;;;;4.68;0.80;;;18.70;56.70;;;;;;9167978;19;20029;-75
2022/05/30 10:51:58;;;;;;;4.35;0.80;;;18.70;56.90;;;;;;9170357;19;20014;-73
2022/05/30 10:55:08;;;;;;;5.45;0.70;;;18.80;56.60;;;;;;9171595;19;20030;-72
2022/05/30 10:58:25;;;;;;;1.48;0.50;;;18.80;56.60;;;;;;9173875;19;20380;-71
2022/05/30 11:01:38;;;;;;;2.42;0.60;;;18.80;56.20;;;;;;9177491;19;20022;-74
2022/05/30 11:04:53;;;;;;;0.50;0.40;;;18.80;56.20;;;;;;9173119;19;20451;-74
2022/05/30 11:08:09;;;;;;;0.82;0.32;;;18.90;56.10;;;;;;9179042;19;20015;-72
2022/05/30 11:11:19;;;;;;;0.55;0.32;;;18.90;56.10;;;;;;9178868;19;20015;-74
2022/05/30 11:14:46;;;;;;;1.20;0.50;;;18.90;55.90;;;;;;9178153;19;20014;-73
2022/05/30 11:18:13;;;;;;;;;;;18.90;55.50;;;;;;9178752;19;20022;-72
2022/05/30 11:21:50;;;;;;;5.28;0.47;;;18.90;56.10;;;;;;9178434;19;19915;-70
2022/05/30 11:24:57;;;;;;;2.90;0.50;;;18.90;55.90;;;;;;9183227;19;20015;-73
2022/05/30 11:28:12;;;;;;;1.75;0.40;;;18.90;55.70;;;;;;9183839;19;20037;-71
2022/05/30 11:31:23;;;;;;;2.22;0.43;;;18.90;55.40;;;;;;9184806;19;20010;-73
2022/05/30 11:34:51;;;;;;;2.17;0.60;;;18.90;55.20;;;;;;9186743;19;20360;-74
2022/05/30 11:38:08;;;;;;;1.92;0.40;;;18.90;54.90;;;;;;9182520;19;20026;-77
2022/05/30 11:41:25;;;;;;;3.33;0.40;;;18.90;55.00;;;;;;9182980;19;20016;-72
2022/05/30 11:44:45;;;;;;;2.28;0.95;;;18.90;54.90;;;;;;9183272;19;20019;-69
2022/05/30 11:48:05;;;;;;;0.75;0.40;;;18.90;54.80;;;;;;9183113;19;20111;-68
2022/05/30 11:51:23;;;;;;;2.42;0.50;;;18.80;54.80;;;;;;9183147;19;20026;-71
2022/05/30 11:54:47;;;;;;;1.92;0.50;;;18.80;54.90;;;;;;9184263;19;20574;-69
2022/05/30 11:57:56;;;;;;;;;;;18.70;54.80;;;;;;9183944;19;20465;-70
2022/05/30 12:01:11;;;;;;;1.27;0.55;;;18.70;55.40;;;;;;9181881;19;19922;-68
2022/05/30 12:04:40;;;;;;;1.23;0.50;;;18.60;55.30;;;;;;9180598;19;20026;-69
2022/05/30 12:08:11;;;;;;;3.25;0.63;;;18.50;55.10;;;;;;9183203;19;20022;-70
2022/05/30 12:11:49;;;;;;;1.02;0.35;;;18.40;55.10;;;;;;9179628;19;20018;-70
2022/05/30 12:15:22;;;;;;;1.35;0.40;;;18.30;55.20;;;;;;9181831;19;20022;-70
2022/05/30 12:25:50;;;;;;;3.08;0.90;;;18.00;55.60;;;;;;9178558;19;20073;-70
2022/05/30 12:28:57;;;;;;;0.35;0.28;;;17.80;55.50;;;;;;9180870;19;20340;-69
2022/05/30 12:32:19;;;;;;;2.80;0.60;;;17.70;55.60;;;;;;9178613;19;20048;-71
2022/05/30 12:35:33;;;;;;;2.90;0.68;;;17.70;55.60;;;;;;9188092;19;20017;-71
2022/05/30 12:38:57;;;;;;;0.95;0.50;;;17.50;55.60;;;;;;9184712;19;20022;-72
2022/05/30 12:42:08;;;;;;;1.52;0.77;;;17.50;55.70;;;;;;9185222;19;20567;-72
2022/05/30 12:45:21;;;;;;;11.27;0.63;;;17.40;55.80;;;;;;9187281;19;20007;-71
2022/05/30 12:48:33;;;;;;;8.73;0.75;;;17.30;55.80;;;;;;9185733;19;20479;-70
2022/05/30 12:52:04;;;;;;;1.00;0.68;;;17.20;55.90;;;;;;9184354;19;20360;-70
2022/05/30 12:55:15;;;;;;;3.38;0.93;;;17.20;55.90;;;;;;9185902;19;20022;-72
2022/05/30 12:58:24;;;;;;;2.65;0.85;;;17.10;55.90;;;;;;9186639;19;20017;-71
2022/05/30 13:01:31;;;;;;;0.70;0.40;;;17.10;55.90;;;;;;9186422;19;20082;-68
2022/05/30 13:04:38;;;;;;;2.03;0.40;;;17.00;56.00;;;;;;9184581;19;20405;-72
2022/05/30 13:07:43;;;;;;;0.93;0.57;;;17.00;56.00;;;;;;9179933;19;20018;-69
2022/05/30 13:10:59;;;;;;;2.38;0.40;;;16.90;56.00;;;;;;9181571;19;20083;-72
2022/05/30 13:14:15;;;;;;;4.10;0.50;;;16.90;55.90;;;;;;9183273;19;20018;-72
2022/05/30 13:17:28;;;;;;;2.65;0.77;;;16.90;56.00;;;;;;9182575;19;20018;-73
2022/05/30 13:20:44;;;;;;;1.02;0.60;;;16.90;55.90;;;;;;9175913;19;20019;-69
2022/05/30 13:23:49;;;;;;;3.55;1.05;;;16.90;56.00;;;;;;9179433;19;20018;-70
2022/05/30 13:26:57;;;;;;;1.52;0.70;;;16.90;56.10;;;;;;9177538;19;20442;-70
2022/05/30 13:30:05;;;;;;;1.35;0.60;;;16.90;56.00;;;;;;9178538;19;20082;-71
2022/05/30 13:33:26;;;;;;;2.72;0.73;;;16.90;56.00;;;;;;9175429;19;20404;-71
2022/05/30 13:36:33;;;;;;;1.38;0.50;;;16.90;55.90;;;;;;9178712;19;20021;-71
2022/05/30 13:39:46;;;;;;;2.35;0.63;;;16.90;56.00;;;;;;9178486;19;20353;-71
2022/05/30 13:42:56;;;;;;;3.50;0.90;;;16.90;55.90;;;;;;9175569;19;20021;-72
2022/05/30 13:46:25;;;;;;;2.03;0.68;;;16.90;55.90;;;;;;9176876;19;20014;-71
2022/05/30 13:49:35;;;;;;;2.05;0.95;;;16.90;56.00;;;;;;9176489;19;20014;-71
2022/05/30 13:52:40;;;;;;;4.97;0.82;;;17.00;55.90;;;;;;9175494;19;20102;-71
2022/05/30 13:55:54;;;;;;;1.33;0.55;;;17.00;55.90;;;;;;9175360;19;20022;-70
2022/05/30 13:59:04;;;;;;;2.10;0.95;;;17.00;55.80;;;;;;9176155;19;20491;-70
2022/05/30 14:02:15;;;;;;;3.17;1.40;;;17.00;55.80;;;;;;9175034;19;20034;-73
2022/05/30 14:05:38;;;;;;;3.20;0.60;;;17.00;56.00;;;;;;9176577;19;20025;-71
2022/05/30 14:08:44;;;;;;;2.03;0.70;;;17.00;55.80;;;;;;9174390;19;20082;-70
2022/05/30 14:11:53;;;;;;;4.55;0.85;;;17.00;55.90;;;;;;9177275;19;20023;-72
2022/05/30 14:15:25;;;;;;;2.83;0.90;;;17.00;55.80;;;;;;9174225;19;20014;-71
2022/05/30 14:18:35;;;;;;;1.98;0.65;;;17.00;55.70;;;;;;9175146;19;20025;-72
2022/05/30 14:21:56;;;;;;;4.88;1.00;;;17.10;55.80;;;;;;9168482;19;20053;-70
2022/05/30 14:25:04;;;;;;;2.17;1.00;;;17.10;55.80;;;;;;9174164;19;20018;-71
2022/05/30 14:28:15;;;;;;;2.13;1.08;;;17.20;55.80;;;;;;9174055;19;20037;-70
2022/05/30 14:31:24;;;;;;;2.67;0.98;;;17.20;55.70;;;;;;9174948;19;20026;-69
2022/05/30 14:34:36;;;;;;;5.80;1.10;;;17.20;55.60;;;;;;9173159;19;20460;-70
2022/05/30 14:37:43;;;;;;;5.28;1.20;;;17.20;55.60;;;;;;9175217;19;20079;-71
2022/05/30 14:40:52;;;;;;;4.15;1.15;;;17.30;55.70;;;;;;9174395;19;20029;-70
2022/05/30 14:43:58;;;;;;;5.05;0.90;;;17.30;55.70;;;;;;9174873;19;20399;-69
2022/05/30 14:47:09;;;;;;;2.00;1.10;;;17.30;55.70;;;;;;9172057;19;20029;-70
2022/05/30 14:50:26;;;;;;;3.42;1.00;;;17.40;55.60;;;;;;9175497;19;20021;-71
2022/05/30 14:53:34;;;;;;;2.25;0.65;;;17.40;55.50;;;;;;9174232;19;20388;-71
2022/05/30 14:56:42;;;;;;;8.32;1.27;;;17.50;55.50;;;;;;9181957;19;20014;-71
2022/05/30 14:59:47;;;;;;;1.10;0.65;;;17.50;55.50;;;;;;9182880;19;20480;-69
2022/05/30 15:06:17;;;;;;;6.60;0.98;;;17.60;55.40;;;;;;9180529;19;20020;-70
2022/05/30 15:09:25;;;;;;;2.97;1.10;;;17.60;55.40;;;;;;9184191;19;20459;-71
2022/05/30 15:12:31;;;;;;;1.38;0.65;;;17.70;55.40;;;;;;9179163;19;20018;-69
2022/05/30 15:15:36;;;;;;;3.22;0.80;;;17.70;55.40;;;;;;9174963;19;20026;-70
2022/05/30 15:18:44;;;;;;;2.58;0.90;;;17.70;55.30;;;;;;9181616;19;20021;-70
2022/05/30 15:21:51;;;;;;;4.40;1.00;;;17.70;55.20;;;;;;9173745;19;20344;-70
2022/05/30 15:24:59;;;;;;;3.40;1.20;;;17.70;55.30;;;;;;9178499;19;20022;-71
2022/05/30 15:28:05;;;;;;;2.80;1.23;;;17.70;55.30;;;;;;9180779;19;20033;-72
2022/05/30 15:31:10;;;;;;;3.15;0.90;;;17.70;55.30;;;;;;9177774;19;20026;-72
2022/05/30 15:34:17;;;;;;;2.30;1.20;;;17.70;55.30;;;;;;9181943;19;20025;-72
2022/05/30 15:37:22;;;;;;;8.70;1.25;;;17.70;55.30;;;;;;9184884;19;20014;-72
2022/05/30 15:40:27;;;;;;;6.35;1.20;;;17.70;55.30;;;;;;9186158;19;20015;-71
2022/05/30 15:43:33;;;;;;;2.20;0.80;;;17.60;55.20;;;;;;9184744;19;20021;-69
2022/05/30 15:46:39;;;;;;;3.92;0.95;;;17.70;55.30;;;;;;9183230;19;20460;-72
2022/05/30 15:49:48;;;;;;;3.63;1.23;;;17.60;55.20;;;;;;9186533;19;20049;-72
2022/05/30 15:59:34;;;;;;;4.30;1.02;;;17.70;55.30;;;;;;9184195;19;20483;-73
2022/05/30 16:02:45;;;;;;;2.70;0.88;;;17.70;55.30;;;;;;9175496;19;20022;-73
2022/05/30 16:05:53;;;;;;;2.05;0.90;;;17.60;55.20;;;;;;9179681;19;20017;-73
2022/05/30 16:09:00;;;;;;;3.30;1.55;;;17.60;55.10;;;;;;9177760;19;20018;-72
2022/05/30 16:12:06;;;;;;;2.28;0.85;;;17.70;55.20;;;;;;9181869;19;20019;-72
2022/05/30 16:15:14;;;;;;;3.45;0.90;;;17.60;55.10;;;;;;9179997;19;20022;-71
2022/05/30 16:18:19;;;;;;;0.90;0.60;;;17.70;55.20;;;;;;9173317;19;20773;-71
2022/05/30 16:21:28;;;;;;;2.55;0.85;;;17.60;55.10;;;;;;9168804;19;20520;-70
2022/05/30 16:24:34;;;;;;;7.63;0.88;;;17.70;55.70;;;;;;9175028;19;20472;-71
2022/05/30 16:27:42;;;;;;;5.15;0.73;;;17.60;55.10;;;;;;9174246;19;20022;-70
2022/05/30 16:30:47;;;;;;;2.92;0.80;;;17.60;55.10;;;;;;9171661;19;20022;-71
2022/05/30 16:33:52;;;;;;;0.95;0.60;;;17.60;55.10;;;;;;9171017;19;20487;-71
2022/05/30 16:37:00;;;;;;;5.88;0.98;;;17.60;55.10;;;;;;9173504;19;20022;-71
2022/05/30 16:40:07;;;;;;;3.85;0.90;;;17.60;55.10;;;;;;9172120;19;20483;-71
2022/05/30 16:43:12;;;;;;;2.20;0.65;;;17.60;55.10;;;;;;9173738;19;20025;-70
2022/05/30 16:46:18;;;;;;;1.63;0.75;;;17.60;55.10;;;;;;9173930;19;20014;-72
2022/05/30 16:49:29;;;;;;;2.42;0.93;;;17.60;55.10;;;;;;9173524;19;20015;-70
2022/05/30 16:52:36;;;;;;;0.90;0.50;;;17.60;55.20;;;;;;9171149;19;20018;-70
2022/05/30 16:55:41;;;;;;;2.90;0.80;;;17.60;55.10;;;;;;9168914;19;20392;-70
2022/05/30 16:58:47;;;;;;;3.60;0.85;;;17.50;55.20;;;;;;9171951;19;20034;-72
2022/05/30 17:01:51;;;;;;;7.75;1.05;;;17.50;55.10;;;;;;9171493;19;20018;-69
2022/05/30 17:04:57;;;;;;;3.08;1.05;;;17.50;55.10;;;;;;9174468;19;20014;-71
2022/05/30 17:08:05;;;;;;;1.75;0.85;;;17.50;55.10;;;;;;9171818;19;20827;-70
2022/05/30 17:11:11;;;;;;;1.48;0.70;;;17.40;55.10;;;;;;9172389;19;20030;-70
2022/05/30 17:14:16;;;;;;;2.65;0.80;;;17.50;55.20;;;;;;9170327;19;20498;-71
2022/05/30 17:17:21;;;;;;;5.03;1.38;;;17.40;55.10;;;;;;9170161;19;20015;-70